Main page
METAR-TAF:

METAR-TAF

Airports :

London, England

London City Airport

latitude: 51-30N, longitude: 000-03E, elevation: 5 m

Current weather observation

The report was made 33 minutes ago, at 14:20 UTC
Wind 4 kt from the Southeast, varying between East and South
Temperature 6°C
Humidity 75%
Pressure 1028 hPa
Visibility 10 km or more

METAR: EGLC 161420Z AUTO 14004KT 100V170 9999 NCD 06/02 Q1028

Time: 14:53 (14:53 UTC)

Forecast

The report was made 50 minutes ago, at 14:03 UTC
Forecast valid from 16 at 15 UTC to 16 at 22 UTC
Wind 3 kt from variable directions
Visibility 10 km or more
Scattered clouds at a height of 2500 ft

TAF: EGLC 161403Z 1615/1622 VRB03KT 9999 SCT025

Weather observations and forecasts of more than 4000 airports (METAR and TAF reports).

The available stations are represented by yellow and red dots on the map.

Hover mouse over dot to see the name of the station.

Then click to see weather observations and forecasts.

To change the map : click on the green buttons with a black cross to zoom in, on the green button with a dash to zoom out, or on the green arrows for adjacent maps.


METAR-TAF: